createdAt,value
2022-08-25T00:02:13.074Z,101213.91
2022-08-25T00:04:40.326Z,101218.16
2022-08-25T00:07:07.803Z,101215.63
2022-08-25T00:09:35.690Z,101214.56
2022-08-25T00:12:03.178Z,101215.88
2022-08-25T00:14:35.429Z,101219.22
2022-08-25T00:17:04.849Z,101216.03
2022-08-25T00:19:35.222Z,101205.34
2022-08-25T00:22:03.101Z,101220.28
2022-08-25T00:24:30.567Z,101218.09
2022-08-25T00:26:59.141Z,101214.63
2022-08-25T00:29:26.407Z,101218.84
2022-08-25T00:31:54.895Z,101218.03
2022-08-25T00:34:26.519Z,101216.34
2022-08-25T00:36:53.815Z,101228.88
2022-08-25T00:39:22.145Z,101225.91
2022-08-25T00:41:51.994Z,101225.34
2022-08-25T00:44:19.250Z,101227.72
2022-08-25T00:46:56.196Z,101232.47
2022-08-25T00:49:33.665Z,101223.38
2022-08-25T00:52:09.281Z,101228.13
2022-08-25T00:54:44.725Z,101228.63
2022-08-25T00:57:13.479Z,101229.38
2022-08-25T00:59:41.188Z,101227.75
2022-08-25T01:02:10.130Z,101232.22
2022-08-25T01:04:37.680Z,101232.69
2022-08-25T01:07:05.032Z,101231.34
2022-08-25T01:09:33.051Z,101229.97
2022-08-25T01:12:01.289Z,101227.53
2022-08-25T01:14:31.470Z,101221.09
2022-08-25T01:16:59.320Z,101226.91
2022-08-25T01:19:28.831Z,101229.81
2022-08-25T01:21:55.819Z,101222.56
2022-08-25T01:24:40.751Z,101228.38
2022-08-25T01:27:07.947Z,101231.78
2022-08-25T01:29:35.973Z,101226.13
2022-08-25T01:32:06.867Z,101231.91
2022-08-25T01:34:36.781Z,101232.13
2022-08-25T01:37:04.236Z,101236.13
2022-08-25T01:39:33.954Z,101232.91
2022-08-25T01:42:06.444Z,101231.75
2022-08-25T01:44:37.892Z,101225.63
2022-08-25T01:47:06.021Z,101227.94
2022-08-25T01:49:32.868Z,101226.59
2022-08-25T01:52:24.710Z,101230.56
2022-08-25T01:54:51.981Z,101218.75
2022-08-25T01:57:18.541Z,101225.34
2022-08-25T01:59:45.993Z,101225.06
2022-08-25T02:02:12.662Z,101225.78
2022-08-25T02:04:39.583Z,101229.25
2022-08-25T02:07:10.897Z,101226.28
2022-08-25T02:09:38.358Z,101226.75
2022-08-25T02:12:05.220Z,101236.84
2022-08-25T02:14:32.012Z,101219.72
2022-08-25T02:16:58.607Z,101223.66
2022-08-25T02:19:26.086Z,101222.28
2022-08-25T02:21:53.328Z,101224.13
2022-08-25T02:24:20.138Z,101228.31
2022-08-25T02:26:46.791Z,101227.75
2022-08-25T02:29:13.865Z,101231.94
2022-08-25T02:31:40.586Z,101228.97
2022-08-25T02:34:09.306Z,101218.75
2022-08-25T02:36:37.288Z,101221.41
2022-08-25T02:39:06.953Z,101220.28
2022-08-25T02:41:33.995Z,101221.31
2022-08-25T02:44:01.932Z,101217.28
2022-08-25T02:46:29.625Z,101222.59
2022-08-25T02:48:56.589Z,101217.75
2022-08-25T02:51:25.493Z,101215.56
2022-08-25T02:53:52.254Z,101219.75
2022-08-25T02:56:20.067Z,101215.47
2022-08-25T02:58:47.370Z,101210.63
2022-08-25T03:01:15.169Z,101216.19
2022-08-25T03:03:44.343Z,101204.63
2022-08-25T03:06:13.812Z,101201.66
2022-08-25T03:08:42.087Z,101202.91
2022-08-25T03:11:09.438Z,101190.34
2022-08-25T03:13:36.600Z,101190.22
2022-08-25T03:16:05.353Z,101193.94
2022-08-25T03:18:38.992Z,101189.09
2022-08-25T03:21:05.760Z,101192.22
2022-08-25T03:23:32.666Z,101188.16
2022-08-25T03:26:17.681Z,101183.56
2022-08-25T03:28:44.347Z,101186.94
2022-08-25T03:31:10.959Z,101182.63
2022-08-25T03:33:38.364Z,101180.47
2022-08-25T03:36:06.259Z,101184.63
2022-08-25T03:38:33.067Z,101172.59
2022-08-25T03:40:59.840Z,101177.56
2022-08-25T03:43:26.410Z,101181.50
2022-08-25T03:45:53.047Z,101181.97
2022-08-25T03:48:19.645Z,101189.38
2022-08-25T03:50:52.241Z,101184.31
2022-08-25T03:53:19.919Z,101180.22
2022-08-25T03:55:47.083Z,101181.53
2022-08-25T03:58:14.225Z,101180.38
2022-08-25T04:00:40.863Z,101173.69
2022-08-25T04:03:07.668Z,101164.28
2022-08-25T04:05:34.218Z,101160.25
2022-08-25T04:08:01.742Z,101156.81
2022-08-25T04:10:28.955Z,101152.97
2022-08-25T04:12:56.715Z,101138.31
2022-08-25T04:15:24.885Z,101148.34
2022-08-25T04:17:55.752Z,101147.78
2022-08-25T04:20:22.346Z,101146.19
2022-08-25T04:22:48.926Z,101150.94
2022-08-25T04:25:15.527Z,101153.22
2022-08-25T04:27:42.410Z,101153.47
2022-08-25T04:30:10.795Z,101155.78
2022-08-25T04:32:37.563Z,101154.41
2022-08-25T04:35:09.247Z,101155.44
2022-08-25T04:37:39.387Z,101163.44
2022-08-25T04:40:07.177Z,101165.72
2022-08-25T04:42:34.858Z,101158.56
2022-08-25T04:45:02.014Z,101155.78
2022-08-25T04:47:28.759Z,101153.34
2022-08-25T04:49:55.761Z,101162.13
2022-08-25T04:52:22.673Z,101164.22
2022-08-25T04:54:49.208Z,101166.09
2022-08-25T04:57:15.765Z,101160.41
2022-08-25T04:59:42.345Z,101150.81
2022-08-25T05:02:09.114Z,101152.84
2022-08-25T05:04:36.850Z,101150.44
2022-08-25T05:07:04.740Z,101146.97
2022-08-25T05:09:32.577Z,101146.97
2022-08-25T05:12:01.240Z,101150.66
2022-08-25T05:14:28.823Z,101153.09
2022-08-25T05:16:56.363Z,101153.31
2022-08-25T05:19:24.079Z,101151.94
2022-08-25T05:21:51.089Z,101159.09
2022-08-25T05:24:18.801Z,101152.50
2022-08-25T05:26:45.918Z,101147.91
2022-08-25T05:29:12.624Z,101143.66
2022-08-25T05:31:43.153Z,101149.78
2022-08-25T05:34:12.034Z,101142.81
2022-08-25T05:36:43.080Z,101147.31
2022-08-25T05:39:10.675Z,101155.84
2022-08-25T05:41:37.750Z,101153.28
2022-08-25T05:44:04.909Z,101145.34
2022-08-25T05:46:31.744Z,101144.38
2022-08-25T05:48:59.018Z,101139.75
2022-08-25T05:51:26.254Z,101137.66
2022-08-25T05:53:52.913Z,101137.28
2022-08-25T05:56:20.413Z,101142.09
2022-08-25T05:58:47.439Z,101125.72
2022-08-25T06:01:43.405Z,101128.13
2022-08-25T06:04:12.415Z,101127.50
2022-08-25T06:06:39.487Z,101122.47
2022-08-25T06:09:08.568Z,101121.13
2022-08-25T06:11:36.534Z,101127.59
2022-08-25T06:14:03.570Z,101133.00
2022-08-25T06:16:31.072Z,101134.63
2022-08-25T06:18:57.769Z,101141.97
2022-08-25T06:21:24.937Z,101135.50
2022-08-25T06:23:51.457Z,101135.84
2022-08-25T06:26:21.229Z,101131.25
2022-08-25T06:28:49.445Z,101131.59
2022-08-25T06:31:16.201Z,101141.88
2022-08-25T06:33:44.089Z,101141.44
2022-08-25T06:36:10.716Z,101146.50
2022-08-25T06:38:37.317Z,101147.25
2022-08-25T06:41:10.515Z,101142.47
2022-08-25T06:43:37.174Z,101151.66
2022-08-25T06:46:09.952Z,101147.31
2022-08-25T06:48:37.687Z,101150.75
2022-08-25T06:55:16.799Z,101152.41
2022-08-25T06:57:43.332Z,101159.25
2022-08-25T07:00:11.240Z,101159.19
2022-08-25T07:02:39.221Z,101152.72
2022-08-25T07:05:08.220Z,101158.19
2022-08-25T07:07:43.571Z,101156.75
2022-08-25T07:10:11.232Z,101150.09
2022-08-25T07:12:37.903Z,101145.06
2022-08-25T07:15:19.508Z,101144.31
2022-08-25T07:17:47.449Z,101140.31
2022-08-25T07:20:16.911Z,101140.66
2022-08-25T07:22:45.993Z,101139.44
2022-08-25T07:25:12.615Z,101143.34
2022-08-25T07:27:39.632Z,101150.72
2022-08-25T07:30:09.290Z,101151.09
2022-08-25T07:32:38.245Z,101146.56
2022-08-25T07:35:15.300Z,101147.88
2022-08-25T07:37:49.424Z,101146.31
2022-08-25T07:40:30.266Z,101145.22
2022-08-25T07:42:58.969Z,101148.28
2022-08-25T07:45:31.952Z,101138.97
2022-08-25T07:48:05.698Z,101143.59
2022-08-25T07:50:32.700Z,101143.13
2022-08-25T07:53:00.133Z,101154.28
2022-08-25T07:55:28.399Z,101149.06
2022-08-25T07:57:57.382Z,101152.31
2022-08-25T08:00:27.617Z,101149.94
2022-08-25T08:02:55.067Z,101145.56
2022-08-25T08:05:23.824Z,101141.88
2022-08-25T08:07:51.565Z,101147.53
2022-08-25T08:10:53.997Z,101145.59
2022-08-25T08:13:07.368Z,101134.44
2022-08-25T08:15:34.931Z,101144.69
2022-08-25T08:18:01.969Z,101138.63
2022-08-25T08:20:42.617Z,101133.81
2022-08-25T08:23:10.650Z,101128.28
2022-08-25T08:25:37.268Z,101124.53
2022-08-25T08:28:03.816Z,101119.50
2022-08-25T08:30:34.118Z,101125.25
2022-08-25T08:33:11.399Z,101117.06
2022-08-25T08:35:41.984Z,101117.72
2022-08-25T08:38:14.678Z,101121.75
2022-08-25T08:41:23.340Z,101118.84
2022-08-25T08:44:16.060Z,101112.00
2022-08-25T08:46:57.500Z,101114.16
2022-08-25T08:49:34.137Z,101109.88
2022-08-25T08:52:03.130Z,101106.13
2022-08-25T08:54:36.253Z,101101.13
2022-08-25T08:57:12.756Z,101094.22
2022-08-25T08:59:48.999Z,101102.25
2022-08-25T09:02:39.104Z,101089.13
2022-08-25T09:05:19.183Z,101089.94
2022-08-25T09:07:54.773Z,101089.16
2022-08-25T09:10:25.455Z,101092.41
2022-08-25T09:13:12.811Z,101087.38
2022-08-25T09:16:06.990Z,101080.91
2022-08-25T09:18:50.986Z,101076.66
2022-08-25T09:21:49.138Z,101069.16
2022-08-25T09:24:30.954Z,101076.38
2022-08-25T09:27:14.942Z,101074.00
2022-08-25T09:30:00.284Z,101076.13
2022-08-25T09:33:02.109Z,101068.91
2022-08-25T09:35:32.828Z,101066.47
2022-08-25T09:38:05.365Z,101072.38
2022-08-25T09:40:35.650Z,101064.28
2022-08-25T09:43:05.638Z,101068.06
2022-08-25T09:45:43.604Z,101070.22
2022-08-25T09:48:24.205Z,101062.41
2022-08-25T09:50:57.279Z,101062.88
2022-08-25T09:53:26.760Z,101060.44
2022-08-25T09:55:59.969Z,101049.97
2022-08-25T09:58:27.393Z,101054.78
2022-08-25T10:01:11.379Z,101049.91
2022-08-25T10:03:38.106Z,101056.94
2022-08-25T10:06:14.775Z,101050.44
2022-08-25T10:09:06.824Z,101050.06
2022-08-25T10:11:43.520Z,101047.13
2022-08-25T10:14:19.028Z,101044.19
2022-08-25T10:16:48.723Z,101043.34
2022-08-25T10:19:21.343Z,101035.84
2022-08-25T10:22:01.895Z,101047.19
2022-08-25T10:24:28.458Z,101034.56
2022-08-25T10:27:01.779Z,101038.63
2022-08-25T10:29:28.274Z,101019.16
2022-08-25T10:31:59.356Z,101017.94
2022-08-25T10:34:44.634Z,101017.47
2022-08-25T10:37:23.468Z,101021.41
2022-08-25T10:39:58.751Z,101017.53
2022-08-25T10:42:47.336Z,101003.31
2022-08-25T10:45:32.300Z,100999.75
2022-08-25T10:48:05.150Z,100998.03
2022-08-25T10:50:45.664Z,101003.56
2022-08-25T10:53:21.433Z,100999.03
2022-08-25T10:56:04.560Z,100999.53
2022-08-25T10:59:11.682Z,100992.28
2022-08-25T11:01:54.668Z,100989.00
2022-08-25T11:05:29.157Z,100987.94
2022-08-25T11:08:11.625Z,100988.44
2022-08-25T11:10:47.358Z,100978.63
2022-08-25T11:13:38.782Z,100975.56
2022-08-25T11:16:18.733Z,100978.72
2022-08-25T11:18:55.915Z,100979.59
2022-08-25T11:21:44.445Z,100964.94
2022-08-25T11:24:41.158Z,100964.47
2022-08-25T11:27:15.743Z,100965.94
2022-08-25T11:29:53.488Z,100964.75
2022-08-25T11:32:23.555Z,100968.19
2022-08-25T11:34:50.802Z,100967.81
2022-08-25T11:37:29.737Z,100968.56
2022-08-25T11:40:26.684Z,100962.78
2022-08-25T11:43:08.808Z,100960.28
2022-08-25T11:45:54.469Z,100956.16
2022-08-25T11:48:37.477Z,100949.44
2022-08-25T11:51:22.892Z,100955.75
2022-08-25T11:54:16.445Z,100952.06
2022-08-25T11:56:50.559Z,100953.66
2022-08-25T11:59:52.379Z,100953.44
2022-08-25T12:02:34.771Z,100951.53
2022-08-25T12:05:10.238Z,100942.50
2022-08-25T12:08:12.141Z,100936.53
2022-08-25T12:10:56.953Z,100935.09
2022-08-25T12:13:43.038Z,100938.13
2022-08-25T12:16:35.814Z,100934.19
2022-08-25T12:19:24.245Z,100921.47
2022-08-25T12:21:52.558Z,100918.94
2022-08-25T12:24:47.258Z,100913.19
2022-08-25T12:27:24.687Z,100917.22
2022-08-25T12:30:18.491Z,100907.97
2022-08-25T12:32:56.608Z,100906.19
2022-08-25T12:35:23.073Z,100897.84
2022-08-25T12:38:03.230Z,100905.50
2022-08-25T12:40:53.289Z,100903.06
2022-08-25T12:43:19.892Z,100897.78
2022-08-25T12:45:48.725Z,100896.66
2022-08-25T12:48:35.717Z,100899.75
2022-08-25T12:51:10.189Z,100901.63
2022-08-25T12:54:15.893Z,100893.25
2022-08-25T12:56:50.594Z,100887.41
2022-08-25T12:59:35.827Z,100895.81
2022-08-25T13:02:23.947Z,100892.59
2022-08-25T13:05:12.441Z,100891.28
2022-08-25T13:07:57.104Z,100893.25
2022-08-25T13:10:32.797Z,100887.44
2022-08-25T13:13:10.317Z,100880.00
2022-08-25T13:15:41.667Z,100876.88
2022-08-25T13:18:22.509Z,100872.88
2022-08-25T13:20:53.482Z,100864.16
2022-08-25T13:23:29.191Z,100863.78
2022-08-25T13:25:58.332Z,100863.94
2022-08-25T13:28:33.444Z,100862.38
2022-08-25T13:31:15.909Z,100857.16
2022-08-25T13:33:57.464Z,100853.69
2022-08-25T13:36:47.118Z,100854.38
2022-08-25T13:39:45.519Z,100852.97
2022-08-25T13:42:16.066Z,100846.16
2022-08-25T13:44:52.385Z,100851.47
2022-08-25T13:47:45.243Z,100841.41
2022-08-25T13:50:28.351Z,100841.28
2022-08-25T13:53:00.570Z,100847.00
2022-08-25T13:55:51.621Z,100843.06
2022-08-25T13:58:45.011Z,100833.50
2022-08-25T14:01:47.737Z,100833.50
2022-08-25T14:04:27.574Z,100838.81
2022-08-25T14:07:15.004Z,100832.72
2022-08-25T14:10:10.282Z,100828.81
2022-08-25T14:12:46.103Z,100820.91
2022-08-25T14:15:18.436Z,100816.66
2022-08-25T14:17:48.595Z,100823.06
2022-08-25T14:20:28.900Z,100818.59
2022-08-25T14:23:10.242Z,100822.84
2022-08-25T14:25:37.271Z,100815.72
2022-08-25T14:28:14.234Z,100811.06
2022-08-25T14:30:46.629Z,100807.09
2022-08-25T14:33:15.317Z,100800.91
2022-08-25T14:35:45.365Z,100793.94
2022-08-25T14:38:14.920Z,100793.75
2022-08-25T14:40:41.895Z,100799.00
2022-08-25T14:43:09.555Z,100799.19
2022-08-25T14:45:39.930Z,100799.50
2022-08-25T14:48:16.132Z,100797.22
2022-08-25T14:50:44.052Z,100787.72
2022-08-25T14:53:11.786Z,100792.38
2022-08-25T14:55:38.864Z,100790.69
2022-08-25T14:58:09.380Z,100793.03
2022-08-25T15:00:42.131Z,100789.44
2022-08-25T15:03:13.717Z,100786.81
2022-08-25T15:05:41.121Z,100777.44
2022-08-25T15:08:32.454Z,100779.09
2022-08-25T15:10:59.815Z,100775.88
2022-08-25T15:13:27.418Z,100768.22
2022-08-25T15:15:54.972Z,100768.53
2022-08-25T15:18:25.818Z,100765.28
2022-08-25T15:20:52.662Z,100769.81
2022-08-25T15:23:19.686Z,100763.50
2022-08-25T15:25:49.020Z,100756.97
2022-08-25T15:28:21.917Z,100759.22
2022-08-25T15:30:49.333Z,100760.31
2022-08-25T15:33:15.880Z,100756.94
2022-08-25T15:35:43.523Z,100757.94
2022-08-25T15:38:11.933Z,100754.31
2022-08-25T15:40:39.624Z,100750.00
2022-08-25T15:43:06.231Z,100758.97
2022-08-25T15:45:35.779Z,100752.28
2022-08-25T15:48:02.558Z,100747.56
2022-08-25T15:50:29.953Z,100757.56
2022-08-25T15:52:56.641Z,100748.72
2022-08-25T15:55:23.462Z,100751.44
2022-08-25T15:57:50.236Z,100749.22
2022-08-25T16:00:18.324Z,100743.13
2022-08-25T16:02:46.236Z,100751.22
2022-08-25T16:05:16.214Z,100746.25
2022-08-25T16:07:45.668Z,100745.88
2022-08-25T16:10:12.584Z,100742.50
2022-08-25T16:12:39.977Z,100745.75
2022-08-25T16:15:09.821Z,100742.59
2022-08-25T16:17:40.726Z,100740.63
2022-08-25T16:20:13.626Z,100739.63
2022-08-25T16:22:40.718Z,100740.38
2022-08-25T16:25:07.777Z,100735.09
2022-08-25T16:27:38.601Z,100733.44
2022-08-25T16:30:07.985Z,100730.13
2022-08-25T16:32:34.864Z,100732.31
2022-08-25T16:35:02.786Z,100731.81
2022-08-25T16:37:29.774Z,100733.28
2022-08-25T16:39:57.343Z,100730.22
2022-08-25T16:42:24.214Z,100731.88
2022-08-25T16:44:55.748Z,100733.72
2022-08-25T16:47:25.166Z,100737.81
2022-08-25T16:49:53.706Z,100741.69
2022-08-25T16:52:52.611Z,100735.59
2022-08-25T16:55:19.451Z,100731.00
2022-08-25T16:57:54.265Z,100726.00
2022-08-25T17:00:28.527Z,100729.19
2022-08-25T17:03:04.853Z,100729.31
2022-08-25T17:05:33.399Z,100727.84
2022-08-25T17:08:19.155Z,100730.22
2022-08-25T17:10:45.730Z,100727.34
2022-08-25T17:13:12.853Z,100726.81
2022-08-25T17:15:46.695Z,100732.50
2022-08-25T17:18:13.846Z,100729.91
2022-08-25T17:20:43.287Z,100726.72
2022-08-25T17:23:12.418Z,100729.44
2022-08-25T17:25:42.968Z,100724.94
2022-08-25T17:28:11.947Z,100721.53
2022-08-25T17:30:39.263Z,100733.22
2022-08-25T17:33:05.874Z,100731.94
2022-08-25T17:35:32.417Z,100737.09
2022-08-25T17:37:58.925Z,100734.22
2022-08-25T17:40:26.542Z,100737.03
2022-08-25T17:42:53.627Z,100733.63
2022-08-25T17:45:20.239Z,100727.22
2022-08-25T17:47:46.749Z,100734.56
2022-08-25T17:50:13.444Z,100735.19
2022-08-25T17:52:39.986Z,100726.41
2022-08-25T17:55:08.576Z,100733.47
2022-08-25T17:57:35.300Z,100737.88
2022-08-25T18:00:23.387Z,100740.66
2022-08-25T18:02:50.391Z,100745.41
2022-08-25T18:05:19.483Z,100734.22
2022-08-25T18:07:47.566Z,100732.91
2022-08-25T18:10:16.462Z,100742.47
2022-08-25T18:12:43.595Z,100740.91
2022-08-25T18:15:12.741Z,100739.91
2022-08-25T18:17:41.573Z,100750.25
2022-08-25T18:20:10.337Z,100754.59
2022-08-25T18:22:38.598Z,100743.94
2022-08-25T18:25:07.770Z,100745.91
2022-08-25T18:27:34.765Z,100745.47
2022-08-25T18:30:02.268Z,100753.31
2022-08-25T18:32:29.906Z,100751.00
2022-08-25T18:34:57.121Z,100741.41
2022-08-25T18:37:43.046Z,100747.66
2022-08-25T18:40:22.965Z,100752.56
2022-08-25T18:42:51.243Z,100748.34
2022-08-25T18:45:19.163Z,100749.50
2022-08-25T18:47:46.154Z,100745.28
2022-08-25T18:50:12.698Z,100748.84
2022-08-25T18:52:39.956Z,100755.84
2022-08-25T18:55:07.124Z,100754.06
2022-08-25T18:57:33.959Z,100754.13
2022-08-25T19:00:01.615Z,100755.25
2022-08-25T19:02:28.255Z,100761.50
2022-08-25T19:04:54.875Z,100755.88
2022-08-25T19:07:21.492Z,100761.84
2022-08-25T19:09:48.077Z,100760.25
2022-08-25T19:12:22.474Z,100761.91
2022-08-25T19:14:49.602Z,100765.72
2022-08-25T19:17:17.136Z,100761.50
2022-08-25T19:19:43.780Z,100771.47
2022-08-25T19:22:38.093Z,100769.38
2022-08-25T19:24:57.705Z,100767.53
2022-08-25T19:27:25.116Z,100767.00
2022-08-25T19:29:51.876Z,100766.28
2022-08-25T19:32:18.650Z,100768.47
2022-08-25T19:34:47.300Z,100765.56
2022-08-25T19:37:18.223Z,100769.09
2022-08-25T19:39:52.909Z,100759.97
2022-08-25T19:42:37.075Z,100762.69
2022-08-25T19:45:11.158Z,100757.88
2022-08-25T19:47:37.972Z,100765.69
2022-08-25T19:50:06.864Z,100766.53
2022-08-25T19:52:34.356Z,100761.22
2022-08-25T19:55:02.825Z,100769.28
2022-08-25T19:57:43.148Z,100762.88
2022-08-25T20:00:15.158Z,100766.38
2022-08-25T20:02:42.966Z,100765.72
2022-08-25T20:05:12.137Z,100765.72
2022-08-25T20:07:39.625Z,100779.13
2022-08-25T20:10:08.560Z,100776.72
2022-08-25T20:12:40.750Z,100780.44
2022-08-25T20:15:08.284Z,100771.91
2022-08-25T20:17:35.261Z,100772.47
2022-08-25T20:20:06.029Z,100774.09
2022-08-25T20:22:33.498Z,100770.63
2022-08-25T20:25:14.085Z,100774.13
2022-08-25T20:27:44.895Z,100771.72
2022-08-25T20:30:22.148Z,100780.59
2022-08-25T20:32:50.148Z,100780.88
2022-08-25T20:35:17.826Z,100782.75
2022-08-25T20:37:45.909Z,100778.22
2022-08-25T20:40:15.573Z,100775.81
2022-08-25T20:42:43.404Z,100782.28
2022-08-25T20:45:10.990Z,100775.84
2022-08-25T20:47:37.657Z,100777.50
2022-08-25T20:50:06.975Z,100775.06
2022-08-25T20:52:34.520Z,100776.16
2022-08-25T20:55:01.734Z,100778.59
2022-08-25T20:57:28.658Z,100778.56
2022-08-25T20:59:55.463Z,100782.88
2022-08-25T21:02:23.720Z,100782.34
2022-08-25T21:04:50.655Z,100778.59
2022-08-25T21:07:18.464Z,100781.03
2022-08-25T21:09:45.313Z,100783.97
2022-08-25T21:12:11.817Z,100782.63
2022-08-25T21:14:40.742Z,100778.59
2022-08-25T21:17:10.585Z,100791.47
2022-08-25T21:19:38.749Z,100787.47
2022-08-25T21:22:07.421Z,100785.59
2022-08-25T21:24:34.509Z,100780.53
2022-08-25T21:27:03.635Z,100781.84
2022-08-25T21:29:32.845Z,100788.56
2022-08-25T21:31:59.824Z,100783.72
2022-08-25T21:34:29.064Z,100788.31
2022-08-25T21:36:57.894Z,100778.41
2022-08-25T21:39:27.422Z,100784.56
2022-08-25T21:41:54.772Z,100781.34
2022-08-25T21:44:22.501Z,100791.00
2022-08-25T21:46:54.124Z,100793.91
2022-08-25T21:49:22.051Z,100791.22
2022-08-25T21:51:59.357Z,100794.97
2022-08-25T21:54:28.598Z,100792.56
2022-08-25T21:56:59.427Z,100790.44
2022-08-25T21:59:31.722Z,100798.97
2022-08-25T22:02:01.440Z,100790.41
2022-08-25T22:04:29.489Z,100795.47
2022-08-25T22:06:57.154Z,100796.53
2022-08-25T22:09:25.376Z,100800.56
2022-08-25T22:11:53.181Z,100800.56
2022-08-25T22:14:23.330Z,100803.22
2022-08-25T22:16:50.560Z,100792.00
2022-08-25T22:19:17.327Z,100793.56
2022-08-25T22:21:44.979Z,100794.13
2022-08-25T22:24:11.826Z,100799.75
2022-08-25T22:26:39.065Z,100800.25
2022-08-25T22:29:06.607Z,100804.50
2022-08-25T22:31:35.210Z,100803.41
2022-08-25T22:34:03.139Z,100806.34
2022-08-25T22:36:33.708Z,100802.34
2022-08-25T22:39:01.113Z,100801.00
2022-08-25T22:41:29.161Z,100805.25
2022-08-25T22:43:56.754Z,100806.31
2022-08-25T22:46:26.326Z,100807.63
2022-08-25T22:48:55.940Z,100807.38
2022-08-25T22:51:25.917Z,100814.81
2022-08-25T22:53:53.375Z,100815.38
2022-08-25T22:56:32.910Z,100822.00
2022-08-25T22:59:03.109Z,100842.56
2022-08-25T23:01:31.793Z,100838.16
2022-08-25T23:04:00.709Z,100830.22
2022-08-25T23:06:29.661Z,100835.81
2022-08-25T23:08:56.619Z,100849.75
2022-08-25T23:11:26.284Z,100834.78
2022-08-25T23:13:57.433Z,100837.16
2022-08-25T23:16:24.347Z,100838.50
2022-08-25T23:18:51.170Z,100834.22
2022-08-25T23:21:41.113Z,100842.50
2022-08-25T23:24:13.319Z,100835.53
2022-08-25T23:26:42.535Z,100843.00
2022-08-25T23:29:18.639Z,100848.72
2022-08-25T23:31:47.575Z,100839.28
2022-08-25T23:34:15.828Z,100843.72
2022-08-25T23:36:43.886Z,100837.38
2022-08-25T23:39:11.408Z,100838.97
2022-08-25T23:41:38.801Z,100833.50
2022-08-25T23:44:06.357Z,100835.13
2022-08-25T23:46:35.848Z,100839.91
2022-08-25T23:49:04.225Z,100844.81
2022-08-25T23:51:37.310Z,100843.50
2022-08-25T23:54:07.085Z,100840.13
2022-08-25T23:56:36.466Z,100848.59
2022-08-25T23:59:04.499Z,100841.13
